Main page
METAR-TAF:

METAR-TAF

Airports :

Buriram Airport

Buriram, Thailand

latitude: 15-13-46N, longitude: 103-15-04E, elevation: 180 m

Current weather observation

The report was made 5 hours and 26 minutes ago, at 13:00 UTC
Wind 4 kt from the East/Northeast
Temperature 33°C
Humidity 44%
Pressure 1010 hPa
Visibility: 6000 m
Few clouds at a height of 3000 ft

METAR: VTUO 041300Z 07004KT 6000 FEW030 33/19 Q1010 NOSIG

Time: 01:26 (18:26 UTC)

Forecast

The report was made 1 hour and 26 minutes ago, at 17:00 UTC
Forecast valid from 04 at 18 UTC to 05 at 18 UTC
Wind 5 kt from the East
Visibility: 8000 m
Few clouds at a height of 3000 ft
Becoming
from 04 at 22 UTC to 04 at 24 UTC
Visibility: 5000 m
mist
Becoming
from 05 at 01 UTC to 05 at 03 UTC
Visibility: 8000 m

TAF: VTUO 041700Z 0418/0518 08005KT 8000 FEW030 BECMG 0422/0424 5000 BR BECMG 0501/0503 8000 NSW

Weather observations and forecasts of more than 4000 airports (METAR and TAF reports).

The available stations are represented by yellow and red dots on the map.

Hover mouse over dot to see the name of the station.

Then click to see weather observations and forecasts.

To change the map : click on the green buttons with a black cross to zoom in, on the green button with a dash to zoom out, or on the green arrows for adjacent maps.


METAR-TAF: